createdAt,value
2022-09-13T00:00:49.672Z,9.33
2022-09-13T00:06:23.170Z,9.38
2022-09-13T00:11:29.705Z,9.36
2022-09-13T00:16:34.818Z,9.34
2022-09-13T00:21:38.020Z,9.32
2022-09-13T00:26:41.383Z,9.28
2022-09-13T00:31:45.223Z,9.27
2022-09-13T00:36:48.571Z,9.25
2022-09-13T00:41:53.505Z,9.18
2022-09-13T00:46:56.725Z,9.01
2022-09-13T00:52:10.986Z,8.79
2022-09-13T00:57:17.759Z,8.64
2022-09-13T01:02:21.798Z,8.60
2022-09-13T01:07:25.058Z,8.58
2022-09-13T01:12:53.837Z,8.53
2022-09-13T01:17:57.270Z,8.53
2022-09-13T01:23:36.929Z,8.55
2022-09-13T01:28:57.020Z,8.50
2022-09-13T01:34:03.096Z,8.49
2022-09-13T01:39:12.790Z,8.48
2022-09-13T01:44:48.578Z,8.43
2022-09-13T01:50:42.856Z,8.39
2022-09-13T01:55:51.053Z,8.38
2022-09-13T02:01:02.741Z,8.32
2022-09-13T02:06:12.046Z,8.37
2022-09-13T02:11:17.593Z,8.37
2022-09-13T02:16:44.761Z,8.35
2022-09-13T02:21:59.379Z,8.41
2022-09-13T02:27:10.251Z,8.47
2022-09-13T02:32:19.101Z,8.47
2022-09-13T02:37:30.542Z,8.45
2022-09-13T02:42:59.109Z,8.42
2022-09-13T02:48:11.370Z,8.38
2022-09-13T02:53:46.699Z,8.29
2022-09-13T02:59:20.730Z,8.18
2022-09-13T03:04:27.709Z,8.09
2022-09-13T03:09:38.112Z,8.06
2022-09-13T03:14:57.513Z,8.02
2022-09-13T03:20:38.932Z,7.97
2022-09-13T03:26:24.469Z,7.96
2022-09-13T03:31:41.072Z,7.94
2022-09-13T03:37:05.275Z,7.91
2022-09-13T03:42:24.512Z,7.85
2022-09-13T03:47:32.650Z,7.78
2022-09-13T03:52:36.553Z,7.71
2022-09-13T03:57:42.260Z,7.72
2022-09-13T04:02:51.126Z,7.73
2022-09-13T04:07:59.255Z,7.74
2022-09-13T04:13:02.545Z,7.76
2022-09-13T04:18:06.104Z,7.82
2022-09-13T04:23:11.742Z,7.93
2022-09-13T04:28:17.415Z,8.02
2022-09-13T04:33:21.880Z,8.12
2022-09-13T04:38:25.101Z,8.22
2022-09-13T04:43:35.529Z,8.32
2022-09-13T04:48:38.976Z,8.44
2022-09-13T04:53:45.870Z,8.58
2022-09-13T04:58:51.297Z,8.75
2022-09-13T05:03:55.065Z,8.88
2022-09-13T05:08:59.300Z,8.97
2022-09-13T05:14:02.654Z,9.12
2022-09-13T05:19:09.266Z,9.25
2022-09-13T05:24:12.499Z,9.38
2022-09-13T05:29:15.949Z,9.57
2022-09-13T05:34:19.961Z,9.69
2022-09-13T05:39:34.004Z,9.80
2022-09-13T05:44:42.927Z,9.93
2022-09-13T05:50:08.625Z,10.05
2022-09-13T05:55:10.222Z,10.25
2022-09-13T06:00:18.518Z,10.59
2022-09-13T06:05:22.049Z,10.94
2022-09-13T06:10:25.610Z,11.21
2022-09-13T06:15:28.937Z,11.36
2022-09-13T06:20:32.862Z,11.59
2022-09-13T06:25:36.079Z,11.97
2022-09-13T06:30:39.471Z,12.32
2022-09-13T06:35:43.142Z,12.63
2022-09-13T06:40:46.905Z,13.02
2022-09-13T06:45:51.026Z,13.29
2022-09-13T06:50:58.816Z,13.44
2022-09-13T06:56:04.970Z,13.56
2022-09-13T07:01:29.698Z,13.80
2022-09-13T07:06:37.979Z,13.97
2022-09-13T07:11:42.403Z,14.22
2022-09-13T07:16:47.248Z,14.47
2022-09-13T07:21:50.914Z,14.77
2022-09-13T07:26:54.723Z,15.19
2022-09-13T07:31:58.940Z,15.61
2022-09-13T07:37:02.869Z,15.99
2022-09-13T07:42:06.268Z,16.53
2022-09-13T07:47:09.723Z,16.99
2022-09-13T07:52:12.990Z,17.26
2022-09-13T07:57:16.403Z,17.49
2022-09-13T08:02:19.796Z,17.66
2022-09-13T08:07:23.319Z,17.63
2022-09-13T08:12:26.518Z,17.57
2022-09-13T08:17:29.990Z,17.87
2022-09-13T08:22:33.343Z,18.10
2022-09-13T08:27:36.726Z,18.24
2022-09-13T08:32:39.953Z,18.40
2022-09-13T08:37:43.995Z,18.46
2022-09-13T08:42:54.624Z,18.66
2022-09-13T08:48:21.694Z,18.87
2022-09-13T08:53:30.399Z,19.04
2022-09-13T08:59:00.157Z,19.23
2022-09-13T09:04:21.557Z,19.54
2022-09-13T09:09:26.826Z,19.92
2022-09-13T09:14:40.259Z,20.40
2022-09-13T09:19:48.266Z,20.95
2022-09-13T09:24:55.095Z,21.30
2022-09-13T09:29:58.607Z,21.77
2022-09-13T09:35:21.165Z,22.31
2022-09-13T09:40:26.495Z,22.57
2022-09-13T09:45:35.066Z,22.57
2022-09-13T09:50:43.901Z,22.39
2022-09-13T09:55:55.366Z,22.09
2022-09-13T10:00:59.512Z,21.79
2022-09-13T10:06:10.335Z,21.45
2022-09-13T10:11:13.819Z,20.96
2022-09-13T10:16:30.131Z,20.31
2022-09-13T10:21:36.854Z,20.00
2022-09-13T10:26:40.653Z,19.82
2022-09-13T10:31:46.451Z,19.75
2022-09-13T10:37:06.519Z,19.92
2022-09-13T10:42:11.127Z,20.19
2022-09-13T10:47:26.532Z,20.62
2022-09-13T10:52:35.537Z,21.24
2022-09-13T10:57:38.878Z,21.53
2022-09-13T11:02:54.572Z,21.90
2022-09-13T11:08:22.038Z,22.37
2022-09-13T11:13:53.508Z,22.58
2022-09-13T11:19:37.614Z,22.85
2022-09-13T11:25:02.171Z,23.19
2022-09-13T11:30:20.551Z,23.76
2022-09-13T11:36:09.677Z,23.89
2022-09-13T11:41:51.272Z,23.85
2022-09-13T11:47:14.485Z,23.44
2022-09-13T11:52:55.564Z,23.12
2022-09-13T11:58:02.154Z,22.91
2022-09-13T12:03:11.493Z,22.65
2022-09-13T12:08:22.877Z,22.50
2022-09-13T12:13:42.845Z,22.43
2022-09-13T12:18:54.810Z,22.28
2022-09-13T12:24:01.051Z,22.14
2022-09-13T12:29:26.678Z,22.07
2022-09-13T12:34:55.574Z,22.05
2022-09-13T12:40:12.413Z,21.97
2022-09-13T12:45:34.182Z,21.85
2022-09-13T12:51:02.415Z,21.72
2022-09-13T12:56:23.291Z,21.58
2022-09-13T13:01:35.006Z,21.48
2022-09-13T13:06:40.886Z,21.43
2022-09-13T13:11:47.687Z,21.44
2022-09-13T13:16:51.308Z,21.53
2022-09-13T13:21:55.085Z,21.73
2022-09-13T13:27:00.902Z,21.91
2022-09-13T13:32:12.430Z,22.13
2022-09-13T13:37:16.139Z,22.23
2022-09-13T13:42:28.069Z,22.30
2022-09-13T13:47:34.396Z,22.36
2022-09-13T13:52:41.588Z,22.35
2022-09-13T13:58:07.903Z,22.29
2022-09-13T14:03:24.390Z,22.37
2022-09-13T14:08:37.000Z,22.49
2022-09-13T14:14:07.366Z,22.50
2022-09-13T14:19:29.139Z,22.45
2022-09-13T14:24:40.025Z,22.40
2022-09-13T14:29:49.330Z,22.53
2022-09-13T14:34:58.738Z,22.52
2022-09-13T14:46:39.430Z,22.34
2022-09-13T14:52:10.551Z,22.36
2022-09-13T14:57:51.430Z,22.42
2022-09-13T15:03:04.384Z,22.30
2022-09-13T15:08:51.411Z,22.02
2022-09-13T15:14:20.488Z,21.78
2022-09-13T15:19:25.445Z,21.48
2022-09-13T15:24:43.646Z,21.15
2022-09-13T15:30:02.700Z,21.10
2022-09-13T15:35:37.332Z,21.27
2022-09-13T15:40:53.625Z,21.45
2022-09-13T15:45:58.557Z,21.39
2022-09-13T15:51:11.002Z,21.22
2022-09-13T15:56:22.030Z,21.12
2022-09-13T16:01:27.898Z,21.13
2022-09-13T16:06:33.144Z,21.01
2022-09-13T16:11:36.382Z,20.83
2022-09-13T16:16:42.234Z,20.64
2022-09-13T16:21:47.065Z,20.52
2022-09-13T16:26:52.206Z,20.44
2022-09-13T16:32:00.596Z,20.35
2022-09-13T16:37:05.098Z,20.25
2022-09-13T16:42:14.526Z,20.13
2022-09-13T16:47:18.660Z,19.99
2022-09-13T16:52:21.988Z,19.85
2022-09-13T16:57:26.415Z,19.71
2022-09-13T17:02:30.648Z,19.57
2022-09-13T17:07:35.238Z,19.44
2022-09-13T17:12:39.424Z,19.33
2022-09-13T17:17:44.078Z,19.26
2022-09-13T17:22:49.643Z,19.16
2022-09-13T17:27:59.749Z,19.11
2022-09-13T17:33:12.182Z,19.03
2022-09-13T17:44:23.322Z,18.88
2022-09-13T17:49:31.225Z,18.80
2022-09-13T17:54:43.545Z,18.71
2022-09-13T17:59:53.482Z,18.65
2022-09-13T18:05:05.715Z,18.61
2022-09-13T18:10:45.701Z,18.58
2022-09-13T18:16:20.708Z,18.55
2022-09-13T18:21:31.049Z,18.51
2022-09-13T18:26:44.563Z,18.44
2022-09-13T18:31:53.712Z,18.37
2022-09-13T18:37:12.832Z,18.31
2022-09-13T18:42:33.368Z,18.19
2022-09-13T18:47:47.905Z,18.04
2022-09-13T18:52:57.019Z,17.90
2022-09-13T18:58:08.696Z,17.79
2022-09-13T19:03:26.335Z,17.69
2022-09-13T19:08:32.474Z,17.59
2022-09-13T19:13:41.910Z,17.50
2022-09-13T19:18:53.680Z,17.45
2022-09-13T19:24:10.716Z,17.36
2022-09-13T19:29:22.709Z,17.26
2022-09-13T19:34:28.749Z,17.18
2022-09-13T19:39:36.742Z,17.05
2022-09-13T19:44:49.901Z,16.90
2022-09-13T19:49:56.209Z,16.73
2022-09-13T19:55:04.059Z,16.57
2022-09-13T20:00:09.675Z,16.42
2022-09-13T20:05:13.583Z,16.30
2022-09-13T20:10:18.393Z,16.17
2022-09-13T20:15:27.440Z,16.02
2022-09-13T20:20:31.938Z,15.89
2022-09-13T20:25:40.292Z,15.77
2022-09-13T20:31:28.942Z,15.70
2022-09-13T20:36:39.529Z,15.65
2022-09-13T20:41:56.042Z,15.61
2022-09-13T20:47:12.858Z,15.54
2022-09-13T20:52:24.780Z,15.45
2022-09-13T20:57:36.192Z,15.33
2022-09-13T21:02:44.663Z,15.18
2022-09-13T21:08:10.756Z,14.97
2022-09-13T21:13:17.060Z,14.79
2022-09-13T21:18:20.723Z,14.63
2022-09-13T21:23:24.956Z,14.54
2022-09-13T21:28:31.380Z,14.43
2022-09-13T21:33:35.876Z,14.41
2022-09-13T21:38:40.196Z,14.38
2022-09-13T21:43:43.878Z,14.34
2022-09-13T21:48:53.734Z,14.32
2022-09-13T21:53:59.479Z,14.36
2022-09-13T21:59:05.823Z,14.41
2022-09-13T22:04:17.281Z,14.39
2022-09-13T22:09:23.317Z,14.37
2022-09-13T22:14:26.835Z,14.37
2022-09-13T22:19:31.879Z,14.37
2022-09-13T22:24:40.618Z,14.34
2022-09-13T22:29:44.081Z,14.31
2022-09-13T22:34:49.088Z,14.32
2022-09-13T22:39:53.189Z,14.36
2022-09-13T22:44:56.675Z,14.34
2022-09-13T22:50:02.238Z,14.31
2022-09-13T22:55:07.381Z,14.33
2022-09-13T23:00:14.755Z,14.30
2022-09-13T23:05:19.372Z,14.28
2022-09-13T23:10:33.318Z,14.31
2022-09-13T23:15:42.898Z,14.42
2022-09-13T23:21:02.609Z,14.50
2022-09-13T23:26:11.463Z,14.58
2022-09-13T23:31:16.259Z,14.69
2022-09-13T23:36:23.124Z,14.77
2022-09-13T23:41:31.414Z,14.80
2022-09-13T23:46:45.293Z,14.79
2022-09-13T23:51:50.867Z,14.68
2022-09-13T23:56:57.196Z,14.54
